createdAt,value
2022-11-16T00:01:16.247Z,0.03
2022-11-16T00:04:15.143Z,0.02
2022-11-16T00:51:36.416Z,0.01
2022-11-16T01:46:26.116Z,0
2022-11-16T01:48:55.496Z,0.01
2022-11-16T01:51:10.937Z,0
2022-11-16T01:53:12.165Z,0.01
2022-11-16T01:56:01.935Z,0
2022-11-16T02:03:06.630Z,0.01
2022-11-16T03:17:30.575Z,0.02
2022-11-16T03:19:38.490Z,0.01
2022-11-16T04:09:24.820Z,0.02
2022-11-16T04:17:00.333Z,0.01
2022-11-16T05:07:07.245Z,0.02
2022-11-16T05:31:10.983Z,0.01
2022-11-16T05:43:18.550Z,0.02
2022-11-16T05:48:10.921Z,0.03
2022-11-16T05:53:09.449Z,0.02
2022-11-16T05:55:48.674Z,0.03
2022-11-16T05:58:13.960Z,0.04
2022-11-16T06:03:25.042Z,0.06
2022-11-16T06:06:10.610Z,0.07
2022-11-16T06:08:42.069Z,0.11
2022-11-16T06:10:59.300Z,0.14
2022-11-16T06:13:02.489Z,0.18
2022-11-16T06:15:54.349Z,0.27
2022-11-16T06:18:32.155Z,0.41
2022-11-16T06:20:55.492Z,0.45
2022-11-16T06:23:04.843Z,0.62
2022-11-16T06:26:02.801Z,0.57
2022-11-16T06:28:46.762Z,1.42
2022-11-16T06:31:16.518Z,2.14
2022-11-16T06:33:33.693Z,2.23
2022-11-16T06:35:33.532Z,2.79
2022-11-16T06:38:23.630Z,5.09
2022-11-16T06:40:59.521Z,6.35
2022-11-16T06:43:21.156Z,8.41
2022-11-16T06:45:28.790Z,9.95
2022-11-16T06:48:24.543Z,10.85
2022-11-16T06:51:06.569Z,14.46
2022-11-16T06:53:34.551Z,14.52
2022-11-16T06:55:48.313Z,16.08
2022-11-16T06:57:47.817Z,22.64
2022-11-16T07:00:36.093Z,28.02
2022-11-16T07:03:10.193Z,28.13
2022-11-16T07:05:30.042Z,34.97
2022-11-16T07:07:35.989Z,38.2
2022-11-16T07:10:30.418Z,50.5
2022-11-16T07:13:10.682Z,63.26
2022-11-16T07:15:36.690Z,69
2022-11-16T07:17:48.733Z,77.86
2022-11-16T07:19:46.531Z,93.76
2022-11-16T07:22:32.924Z,108.88
2022-11-16T07:25:05.397Z,150.48
2022-11-16T07:27:23.673Z,153.16
2022-11-16T07:29:27.628Z,159.44
2022-11-16T07:32:20.474Z,134.56
2022-11-16T07:34:59.536Z,149.48
2022-11-16T07:37:23.361Z,132.92
2022-11-16T07:39:33.241Z,146.36
2022-11-16T07:42:32.191Z,163.9
2022-11-16T07:45:16.949Z,194
2022-11-16T07:47:47.371Z,237.4
2022-11-16T07:50:03.838Z,266.1
2022-11-16T07:52:06.035Z,286.3
2022-11-16T07:54:56.835Z,345.7
2022-11-16T07:57:33.659Z,316
2022-11-16T07:59:56.247Z,324.4
2022-11-16T08:02:04.633Z,347.2
2022-11-16T08:05:01.835Z,372.4
2022-11-16T08:07:44.751Z,405.6
2022-11-16T08:10:13.488Z,406.4
2022-11-16T08:12:27.935Z,444.3
2022-11-16T08:14:28.543Z,453.9
2022-11-16T08:17:17.555Z,543.5
2022-11-16T08:19:52.438Z,446
2022-11-16T08:22:13.356Z,436.3
2022-11-16T08:24:19.977Z,429.9
2022-11-16T08:27:15.218Z,416.9
2022-11-16T08:29:56.452Z,386.5
2022-11-16T08:32:23.093Z,418.2
2022-11-16T08:34:35.859Z,445.2
2022-11-16T08:36:34.562Z,490.5
2022-11-16T08:39:21.862Z,397.1
2022-11-16T08:41:55.010Z,435.2
2022-11-16T08:44:13.875Z,541.2
2022-11-16T08:46:18.704Z,572.6
2022-11-16T08:49:12.134Z,608.3
2022-11-16T08:51:51.308Z,644.4
2022-11-16T08:54:16.453Z,589.1
2022-11-16T08:56:27.589Z,508.6
2022-11-16T08:59:27.005Z,389.2
2022-11-16T09:02:12.844Z,371.5
2022-11-16T09:04:44.107Z,334.2
2022-11-16T09:07:01.308Z,307.1
2022-11-16T09:09:04.428Z,317.6
2022-11-16T09:11:56.181Z,419.2
2022-11-16T09:14:33.611Z,543
2022-11-16T09:16:56.942Z,699.2
2022-11-16T09:19:06.197Z,764.8
2022-11-16T09:22:04.146Z,718.7
2022-11-16T09:24:47.375Z,584.4
2022-11-16T09:27:17.011Z,444
2022-11-16T09:29:32.418Z,364.3
2022-11-16T09:31:33.681Z,400.3
2022-11-16T09:34:23.644Z,352.6
2022-11-16T09:36:59.422Z,408.8
2022-11-16T09:39:31.944Z,467
2022-11-16T09:41:28.609Z,537.4
2022-11-16T09:44:24.701Z,509.2
2022-11-16T09:47:06.659Z,544.3
2022-11-16T09:49:34.360Z,614.5
2022-11-16T09:51:48.031Z,613.9
2022-11-16T09:53:47.578Z,585.2
2022-11-16T09:56:35.621Z,636.6
2022-11-16T09:59:13.654Z,709.7
2022-11-16T10:01:29.561Z,736.9
2022-11-16T10:03:35.543Z,750.7
2022-11-16T10:06:29.782Z,599
2022-11-16T10:09:10.121Z,556
2022-11-16T10:11:36.380Z,543.2
2022-11-16T10:13:48.197Z,564.1
2022-11-16T10:15:45.562Z,607.6
2022-11-16T10:18:31.905Z,762.5
2022-11-16T10:21:04.043Z,765.7
2022-11-16T10:23:22.184Z,876.1
2022-11-16T10:25:26.034Z,835.8
2022-11-16T10:28:18.445Z,806.7
2022-11-16T10:30:56.977Z,776.3
2022-11-16T10:33:21.263Z,810.2
2022-11-16T10:35:31.303Z,807.6
2022-11-16T10:38:30.133Z,754.2
2022-11-16T10:41:14.801Z,788.1
2022-11-16T10:43:45.249Z,771.5
2022-11-16T10:46:01.272Z,772.8
2022-11-16T10:48:03.390Z,761.9
2022-11-16T10:50:54.015Z,742
2022-11-16T10:53:30.460Z,725.4
2022-11-16T10:55:52.894Z,696.3
2022-11-16T10:58:01.099Z,629.7
2022-11-16T11:00:57.944Z,587.6
2022-11-16T11:03:40.744Z,544.9
2022-11-16T11:06:09.456Z,477.6
2022-11-16T11:08:23.487Z,467.3
2022-11-16T11:10:24.067Z,412.6
2022-11-16T11:13:12.821Z,406.5
2022-11-16T11:15:47.608Z,360
2022-11-16T11:18:08.057Z,398.2
2022-11-16T11:20:14.510Z,512.8
2022-11-16T11:23:09.645Z,516.3
2022-11-16T11:25:50.455Z,524.9
2022-11-16T11:28:17.387Z,525.1
2022-11-16T11:30:30.043Z,489.1
2022-11-16T11:32:28.483Z,545.6
2022-11-16T11:35:15.685Z,630
2022-11-16T11:37:48.622Z,777.6
2022-11-16T11:40:07.420Z,903
2022-11-16T11:42:12.245Z,641.2
2022-11-16T11:45:05.559Z,510.2
2022-11-16T11:47:57.733Z,331.8
2022-11-16T11:50:09.578Z,222.6
2022-11-16T11:52:20.453Z,230
2022-11-16T11:55:19.901Z,224.8
2022-11-16T11:58:05.100Z,246.4
2022-11-16T12:00:35.922Z,231.4
2022-11-16T12:02:52.897Z,248.9
2022-11-16T12:04:55.622Z,182.8
2022-11-16T12:07:47.192Z,132.2
2022-11-16T12:10:24.591Z,118.48
2022-11-16T12:12:47.761Z,89.76
2022-11-16T12:14:56.906Z,50.48
2022-11-16T12:17:54.705Z,73.08
2022-11-16T12:20:38.273Z,75
2022-11-16T12:23:07.613Z,67.38
2022-11-16T12:25:22.976Z,83.08
2022-11-16T12:27:24.071Z,130.96
2022-11-16T12:30:13.758Z,188.3
2022-11-16T12:32:49.562Z,328.6
2022-11-16T12:35:11.071Z,399.5
2022-11-16T12:37:18.335Z,428
2022-11-16T12:40:14.434Z,746.8
2022-11-16T12:42:56.226Z,1017.2
2022-11-16T12:45:27.682Z,1110.7
2022-11-16T12:47:37.225Z,747.8
2022-11-16T12:49:36.673Z,476.8
2022-11-16T12:52:24.170Z,247.1
2022-11-16T12:55:24.589Z,240.4
2022-11-16T12:57:17.577Z,164.3
2022-11-16T12:59:23.116Z,199.1
2022-11-16T13:02:17.164Z,394.8
2022-11-16T13:04:57.203Z,322.1
2022-11-16T13:07:23.096Z,226
2022-11-16T13:09:34.606Z,207.2
2022-11-16T13:11:32.256Z,234
2022-11-16T13:14:18.465Z,312.6
2022-11-16T13:16:50.427Z,382.7
2022-11-16T13:19:08.104Z,386.8
2022-11-16T13:21:11.847Z,466
2022-11-16T13:24:04.163Z,558.4
2022-11-16T13:26:42.329Z,622.7
2022-11-16T13:29:06.480Z,706.8
2022-11-16T13:31:16.424Z,664.9
2022-11-16T13:34:14.829Z,589.2
2022-11-16T13:36:59.232Z,455.3
2022-11-16T13:39:29.496Z,380.4
2022-11-16T13:41:45.483Z,380.6
2022-11-16T13:43:47.077Z,450.4
2022-11-16T13:46:54.578Z,614
2022-11-16T13:49:13.965Z,421.9
2022-11-16T13:51:36.037Z,668.4
2022-11-16T13:56:40.719Z,441.2
2022-11-16T13:59:23.091Z,376.9
2022-11-16T14:01:51.583Z,326.5
2022-11-16T14:04:05.764Z,295.8
2022-11-16T14:06:05.763Z,279.6
2022-11-16T14:08:54.550Z,307.6
2022-11-16T14:11:29.143Z,332.3
2022-11-16T14:13:49.459Z,239
2022-11-16T14:15:55.834Z,233.1
2022-11-16T14:18:50.662Z,189.1
2022-11-16T14:21:31.346Z,156.4
2022-11-16T14:23:57.824Z,131.68
2022-11-16T14:26:10.299Z,115.44
2022-11-16T14:28:08.577Z,108.72
2022-11-16T14:30:55.423Z,110
2022-11-16T14:33:28.288Z,93.88
2022-11-16T14:35:46.487Z,86.64
2022-11-16T14:37:50.874Z,165.5
2022-11-16T14:40:44.016Z,165.7
2022-11-16T14:43:22.929Z,129.2
2022-11-16T14:45:47.703Z,96.88
2022-11-16T14:47:58.503Z,65.12
2022-11-16T14:50:57.752Z,41.54
2022-11-16T14:53:42.811Z,31.71
2022-11-16T14:56:13.637Z,37.01
2022-11-16T14:58:30.596Z,47.5
2022-11-16T15:00:33.378Z,51.88
2022-11-16T15:03:24.594Z,60.72
2022-11-16T15:06:01.844Z,49.94
2022-11-16T15:08:24.730Z,40.75
2022-11-16T15:10:33.510Z,30.87
2022-11-16T15:13:31.287Z,22.92
2022-11-16T15:16:14.664Z,13.61
2022-11-16T15:18:43.901Z,9.67
2022-11-16T15:20:59.226Z,8.08
2022-11-16T15:22:59.939Z,10.45
2022-11-16T15:25:49.443Z,16.14
2022-11-16T15:28:24.383Z,18.47
2022-11-16T15:30:45.795Z,13.56
2022-11-16T15:32:53.355Z,9.77
2022-11-16T15:35:48.729Z,8
2022-11-16T15:38:30.535Z,7.04
2022-11-16T15:40:58.101Z,6.96
2022-11-16T15:43:11.472Z,8.36
2022-11-16T15:45:15.582Z,8.13
2022-11-16T15:47:58.739Z,6.18
2022-11-16T15:50:13.329Z,4.4
2022-11-16T15:52:13.781Z,3.71
2022-11-16T15:55:02.776Z,2.17
2022-11-16T15:57:39.698Z,1.65
2022-11-16T15:59:58.473Z,1.77
2022-11-16T16:02:05.053Z,1.2
2022-11-16T16:05:00.425Z,0.76
2022-11-16T16:07:41.555Z,0.45
2022-11-16T16:10:08.511Z,0.29
2022-11-16T16:12:21.436Z,0.21
2022-11-16T16:14:20.103Z,0.16
2022-11-16T16:17:07.342Z,0.12
2022-11-16T16:21:58.853Z,0.09
2022-11-16T16:24:03.591Z,0.08
2022-11-16T16:26:56.950Z,0.04
2022-11-16T16:29:36.349Z,0.05
2022-11-16T16:34:12.590Z,0.06
2022-11-16T16:37:12.589Z,0.07
2022-11-16T16:39:58.033Z,0.06
2022-11-16T16:42:29.481Z,0.05
2022-11-16T16:46:49.834Z,0.04
2022-11-16T16:52:19.052Z,0.05
2022-11-16T16:56:51.947Z,0.06
2022-11-16T16:59:50.279Z,0.04
2022-11-16T17:02:33.767Z,0.05
2022-11-16T17:05:03.446Z,0.04
2022-11-16T17:12:10.031Z,0.03
2022-11-16T17:14:45.839Z,0.04
2022-11-16T17:24:52.788Z,0.05
2022-11-16T17:29:34.069Z,0.04
2022-11-16T17:34:21.870Z,0.14
2022-11-16T17:36:56.035Z,0.13
2022-11-16T17:39:15.921Z,0.04
2022-11-16T17:46:56.591Z,0.05
2022-11-16T17:58:51.207Z,0.06
2022-11-16T18:01:09.483Z,0.05
2022-11-16T18:03:13.033Z,0.04
2022-11-16T18:06:05.877Z,0.05
2022-11-16T18:08:44.490Z,0.04
2022-11-16T18:11:08.868Z,0.05
2022-11-16T18:13:19.175Z,0.04
2022-11-16T18:23:49.303Z,0.05
2022-11-16T18:28:42.215Z,0.06
2022-11-16T18:31:19.004Z,0.05
2022-11-16T18:33:41.633Z,0.04
2022-11-16T18:41:30.101Z,0.05
2022-11-16T18:51:02.687Z,0.04
2022-11-16T18:53:37.855Z,0.05
2022-11-16T18:58:13.094Z,0.04
2022-11-16T19:00:59.817Z,0.05
2022-11-16T19:20:03.904Z,0.04
2022-11-16T19:28:01.954Z,0.05
2022-11-16T19:30:12.913Z,0.04
2022-11-16T19:40:46.587Z,0.06
2022-11-16T19:42:49.790Z,0.08
2022-11-16T20:18:10.299Z,0.07
2022-11-16T20:20:52.208Z,0.08
2022-11-16T20:23:19.879Z,0.03
2022-11-16T20:30:21.012Z,0.02
2022-11-16T20:42:55.087Z,0.03
2022-11-16T20:47:33.185Z,0.02
2022-11-16T20:52:17.496Z,0.03
2022-11-16T20:54:49.717Z,0.02
2022-11-16T20:59:11.719Z,0.01
2022-11-16T21:54:01.110Z,0
2022-11-16T22:38:44.241Z,0.01
2022-11-16T22:44:13.595Z,0
2022-11-16T22:51:43.878Z,0.01
2022-11-16T23:06:39.000Z,0
2022-11-16T23:09:00.574Z,0.01
2022-11-16T23:11:07.953Z,0
2022-11-16T23:36:08.536Z,0.01
2022-11-16T23:48:11.229Z,0
2022-11-16T23:50:43.461Z,0.01
